createdAt,value
2023-06-29T00:01:39.145Z,3.30
2023-06-29T00:04:07.012Z,2.37
2023-06-29T00:06:37.558Z,2.77
2023-06-29T00:09:05.491Z,2.57
2023-06-29T00:11:33.252Z,2.87
2023-06-29T00:14:00.915Z,2.90
2023-06-29T00:16:31.847Z,2.90
2023-06-29T00:19:01.357Z,2.90
2023-06-29T00:21:29.686Z,2.80
2023-06-29T00:23:57.430Z,2.80
2023-06-29T00:26:30.251Z,2.70
2023-06-29T00:28:58.425Z,2.90
2023-06-29T00:31:26.178Z,2.83
2023-06-29T00:33:55.206Z,3.00
2023-06-29T00:36:22.926Z,2.90
2023-06-29T00:38:50.552Z,2.93
2023-06-29T00:41:18.297Z,2.87
2023-06-29T00:43:46.704Z,2.90
2023-06-29T00:46:15.305Z,3.07
2023-06-29T00:48:43.194Z,3.80
2023-06-29T00:51:13.464Z,3.20
2023-06-29T00:53:41.124Z,3.00
2023-06-29T00:56:08.960Z,3.30
2023-06-29T00:58:37.514Z,3.20
2023-06-29T01:01:05.320Z,3.07
2023-06-29T01:03:33.701Z,3.50
2023-06-29T01:06:07.058Z,3.10
2023-06-29T01:08:43.177Z,3.30
2023-06-29T01:11:11.963Z,3.57
2023-06-29T01:13:42.904Z,4.30
2023-06-29T01:16:12.618Z,3.07
2023-06-29T01:18:41.449Z,3.20
2023-06-29T01:21:09.417Z,3.57
2023-06-29T01:23:40.785Z,3.03
2023-06-29T01:26:13.465Z,3.53
2023-06-29T01:28:41.586Z,3.60
2023-06-29T01:31:10.730Z,3.17
2023-06-29T01:33:38.472Z,3.10
2023-06-29T01:36:13.373Z,2.83
2023-06-29T01:38:47.890Z,3.10
2023-06-29T01:41:17.939Z,3.80
2023-06-29T01:43:46.288Z,3.00
2023-06-29T01:46:14.780Z,3.50
2023-06-29T01:48:42.662Z,3.47
2023-06-29T01:51:10.766Z,3.40
2023-06-29T01:53:38.777Z,3.80
2023-06-29T01:56:07.156Z,3.43
2023-06-29T01:58:36.191Z,3.70
2023-06-29T02:01:03.951Z,3.50
2023-06-29T02:03:31.670Z,3.83
2023-06-29T02:05:59.333Z,4.10
2023-06-29T02:08:27.039Z,4.10
2023-06-29T02:10:54.974Z,3.60
2023-06-29T02:13:22.598Z,4.07
2023-06-29T02:15:51.540Z,3.67
2023-06-29T02:18:19.155Z,4.30
2023-06-29T02:20:46.811Z,4.30
2023-06-29T02:23:14.611Z,4.20
2023-06-29T02:25:42.550Z,4.90
2023-06-29T02:28:10.393Z,3.93
2023-06-29T02:30:38.033Z,4.33
2023-06-29T02:33:07.072Z,4.97
2023-06-29T02:35:34.715Z,3.83
2023-06-29T02:38:02.274Z,3.87
2023-06-29T02:40:29.936Z,4.37
2023-06-29T02:42:57.573Z,4.27
2023-06-29T02:45:25.600Z,4.43
2023-06-29T02:47:53.514Z,3.87
2023-06-29T02:50:22.991Z,5.37
2023-06-29T02:52:50.636Z,4.10
2023-06-29T02:55:18.286Z,4.60
2023-06-29T02:57:45.939Z,4.50
2023-06-29T03:00:14.663Z,4.83
2023-06-29T03:02:42.509Z,4.70
2023-06-29T03:05:10.886Z,4.57
2023-06-29T03:07:39.890Z,4.50
2023-06-29T03:10:08.678Z,4.60
2023-06-29T03:12:36.714Z,4.50
2023-06-29T03:15:04.639Z,4.70
2023-06-29T03:17:32.359Z,4.73
2023-06-29T03:20:00.251Z,5.13
2023-06-29T03:22:27.871Z,4.77
2023-06-29T03:24:56.866Z,4.37
2023-06-29T03:27:24.525Z,4.90
2023-06-29T03:29:54.633Z,5.30
2023-06-29T03:32:22.324Z,5.00
2023-06-29T03:34:50.019Z,5.10
2023-06-29T03:37:17.987Z,5.20
2023-06-29T03:39:45.614Z,5.37
2023-06-29T03:42:14.723Z,4.80
2023-06-29T03:44:42.464Z,4.70
2023-06-29T03:47:10.044Z,4.60
2023-06-29T03:49:37.726Z,5.03
2023-06-29T03:52:06.009Z,4.97
2023-06-29T03:54:33.606Z,5.53
2023-06-29T03:57:02.817Z,5.13
2023-06-29T03:59:31.842Z,5.70
2023-06-29T04:01:59.750Z,5.30
2023-06-29T04:04:27.417Z,4.83
2023-06-29T04:06:55.058Z,4.83
2023-06-29T04:09:22.727Z,4.70
2023-06-29T04:11:50.390Z,4.73
2023-06-29T04:14:18.068Z,4.70
2023-06-29T04:16:47.229Z,4.57
2023-06-29T04:19:16.963Z,5.37
2023-06-29T04:21:44.829Z,5.10
2023-06-29T04:24:12.477Z,4.73
2023-06-29T04:26:40.160Z,3.97
2023-06-29T04:29:07.876Z,3.97
2023-06-29T04:31:36.078Z,4.47
2023-06-29T04:34:06.073Z,4.10
2023-06-29T04:36:33.748Z,3.90
2023-06-29T04:39:02.155Z,4.53
2023-06-29T04:41:33.052Z,4.40
2023-06-29T04:44:01.560Z,3.87
2023-06-29T04:46:30.364Z,3.63
2023-06-29T04:48:58.088Z,4.00
2023-06-29T04:51:27.615Z,4.20
2023-06-29T04:53:55.411Z,5.60
2023-06-29T04:56:23.177Z,4.50
2023-06-29T04:58:50.953Z,4.50
2023-06-29T05:01:18.611Z,4.50
2023-06-29T05:03:46.463Z,4.50
2023-06-29T05:06:14.991Z,4.57
2023-06-29T05:08:44.112Z,4.13
2023-06-29T05:11:11.790Z,4.07
2023-06-29T05:13:40.631Z,4.13
2023-06-29T05:16:08.460Z,4.20
2023-06-29T05:18:37.105Z,3.90
2023-06-29T05:21:05.685Z,5.00
2023-06-29T05:23:33.621Z,4.50
2023-06-29T05:26:02.693Z,4.50
2023-06-29T05:28:30.368Z,4.40
2023-06-29T05:30:58.039Z,4.83
2023-06-29T05:33:25.861Z,3.90
2023-06-29T05:35:53.533Z,4.60
2023-06-29T05:38:21.390Z,4.40
2023-06-29T05:40:49.071Z,4.13
2023-06-29T05:43:18.079Z,4.80
2023-06-29T05:45:47.096Z,3.60
2023-06-29T05:48:14.767Z,4.20
2023-06-29T05:50:42.818Z,4.53
2023-06-29T05:53:10.707Z,4.00
2023-06-29T05:55:38.393Z,4.43
2023-06-29T05:58:05.992Z,3.80
2023-06-29T06:00:35.021Z,4.07
2023-06-29T06:03:02.811Z,4.00
2023-06-29T06:05:30.775Z,3.63
2023-06-29T06:07:58.396Z,3.87
2023-06-29T06:10:26.104Z,2.83
2023-06-29T06:12:53.835Z,3.30
2023-06-29T06:15:21.481Z,3.00
2023-06-29T06:17:50.727Z,3.33
2023-06-29T06:20:18.621Z,3.63
2023-06-29T06:22:46.563Z,3.27
2023-06-29T06:25:15.846Z,3.43
2023-06-29T06:27:43.597Z,3.30
2023-06-29T06:30:12.020Z,3.47
2023-06-29T06:32:40.889Z,3.30
2023-06-29T06:35:10.947Z,3.10
2023-06-29T06:37:39.445Z,3.50
2023-06-29T06:40:08.936Z,2.80
2023-06-29T06:42:37.006Z,2.80
2023-06-29T06:45:05.736Z,3.23
2023-06-29T06:47:34.178Z,3.07
2023-06-29T06:50:03.601Z,2.87
2023-06-29T06:52:32.630Z,2.88
2023-06-29T06:55:00.404Z,3.43
2023-06-29T06:57:28.195Z,4.10
2023-06-29T06:59:55.833Z,3.47
2023-06-29T07:02:23.514Z,2.90
2023-06-29T07:04:52.063Z,3.00
2023-06-29T07:07:19.805Z,3.17
2023-06-29T07:09:49.391Z,3.70
2023-06-29T07:12:16.979Z,2.80
2023-06-29T07:14:44.728Z,2.77
2023-06-29T07:17:12.430Z,3.60
2023-06-29T07:24:41.285Z,2.80
2023-06-29T07:27:10.307Z,3.10
2023-06-29T07:29:38.265Z,3.85
2023-06-29T07:32:06.651Z,2.78
2023-06-29T07:34:34.697Z,3.20
2023-06-29T07:37:02.695Z,3.03
2023-06-29T07:39:30.359Z,2.65
2023-06-29T07:41:58.060Z,2.60
2023-06-29T07:44:27.129Z,2.50
2023-06-29T07:46:54.975Z,2.38
2023-06-29T07:49:22.974Z,3.40
2023-06-29T07:51:50.942Z,3.10
2023-06-29T07:54:19.428Z,2.87
2023-06-29T07:59:17.663Z,3.13
2023-06-29T08:01:49.099Z,3.60
2023-06-29T08:04:17.510Z,3.67
2023-06-29T08:06:51.259Z,3.57
2023-06-29T08:09:22.038Z,2.70
2023-06-29T08:11:50.112Z,3.42
2023-06-29T08:14:17.731Z,2.95
2023-06-29T08:16:46.796Z,2.53
2023-06-29T08:19:15.480Z,2.72
2023-06-29T08:21:43.622Z,2.40
2023-06-29T08:24:11.193Z,2.63
2023-06-29T08:26:38.883Z,2.40
2023-06-29T08:29:06.460Z,2.88
2023-06-29T08:31:34.157Z,2.47
2023-06-29T08:34:03.335Z,2.50
2023-06-29T08:36:34.026Z,2.38
2023-06-29T08:39:02.105Z,2.63
2023-06-29T08:41:30.001Z,2.50
2023-06-29T08:43:57.726Z,2.70
2023-06-29T08:46:26.141Z,2.47
2023-06-29T08:48:54.405Z,2.50
2023-06-29T08:51:23.929Z,1.60
2023-06-29T08:53:52.573Z,2.20
2023-06-29T08:56:24.569Z,1.80
2023-06-29T08:58:53.322Z,1.60
2023-06-29T09:01:21.611Z,1.60
2023-06-29T09:03:51.412Z,2.28
2023-06-29T09:06:19.839Z,1.60
2023-06-29T09:08:48.913Z,1.40
2023-06-29T09:11:16.650Z,1.63
2023-06-29T09:13:44.223Z,2.00
2023-06-29T09:16:12.219Z,2.10
2023-06-29T09:18:39.947Z,1.93
2023-06-29T09:21:07.673Z,4.30
2023-06-29T09:23:35.660Z,2.10
2023-06-29T09:26:06.680Z,2.37
2023-06-29T09:28:36.911Z,2.20
2023-06-29T09:31:08.549Z,2.10
2023-06-29T09:33:36.246Z,1.97
2023-06-29T09:36:09.549Z,2.40
2023-06-29T09:38:38.545Z,2.00
2023-06-29T09:41:09.012Z,2.20
2023-06-29T09:43:36.750Z,2.80
2023-06-29T09:46:08.701Z,2.70
2023-06-29T09:51:20.559Z,2.20
2023-06-29T09:53:48.422Z,2.00
2023-06-29T09:56:18.251Z,1.60
2023-06-29T09:58:47.198Z,2.00
2023-06-29T10:01:17.299Z,2.20
2023-06-29T10:03:45.410Z,1.97
2023-06-29T10:06:17.499Z,2.30
2023-06-29T10:08:47.425Z,1.97
2023-06-29T10:11:17.311Z,1.90
2023-06-29T10:13:51.917Z,2.23
2023-06-29T10:16:22.220Z,2.07
2023-06-29T10:18:52.772Z,2.37
2023-06-29T10:21:20.537Z,1.83
2023-06-29T10:23:49.342Z,2.37
2023-06-29T10:26:19.527Z,1.90
2023-06-29T10:28:47.357Z,1.97
2023-06-29T10:31:19.518Z,2.10
2023-06-29T10:33:48.456Z,1.80
2023-06-29T10:36:18.139Z,1.93
2023-06-29T10:38:45.922Z,3.47
2023-06-29T10:41:28.232Z,1.97
2023-06-29T10:43:56.849Z,2.23
2023-06-29T10:46:46.625Z,2.00
2023-06-29T10:49:24.796Z,1.93
2023-06-29T10:51:54.072Z,1.80
2023-06-29T10:54:23.867Z,2.23
2023-06-29T10:57:03.221Z,2.20
2023-06-29T10:59:32.860Z,2.00
2023-06-29T11:02:00.775Z,2.20
2023-06-29T11:04:29.118Z,2.47
2023-06-29T11:06:56.963Z,2.20
2023-06-29T11:09:24.684Z,2.50
2023-06-29T11:11:52.416Z,2.20
2023-06-29T11:14:21.440Z,2.00
2023-06-29T11:16:49.524Z,2.30
2023-06-29T11:19:17.244Z,2.17
2023-06-29T11:21:44.912Z,2.13
2023-06-29T11:24:12.496Z,1.90
2023-06-29T11:26:40.145Z,2.30
2023-06-29T11:29:08.949Z,2.10
2023-06-29T11:31:38.068Z,1.97
2023-06-29T11:34:06.012Z,2.30
2023-06-29T11:36:37.383Z,2.70
2023-06-29T11:39:07.993Z,2.20
2023-06-29T11:41:35.952Z,2.13
2023-06-29T11:44:03.836Z,2.30
2023-06-29T11:46:34.732Z,3.57
2023-06-29T11:49:05.358Z,2.53
2023-06-29T11:51:34.258Z,2.47
2023-06-29T11:54:02.486Z,2.80
2023-06-29T11:56:37.631Z,2.10
2023-06-29T11:59:06.902Z,2.33
2023-06-29T12:01:36.179Z,2.40
2023-06-29T12:04:07.476Z,2.03
2023-06-29T12:06:35.605Z,2.30
2023-06-29T12:09:11.762Z,2.00
2023-06-29T12:11:40.501Z,2.10
2023-06-29T12:14:10.350Z,2.30
2023-06-29T12:19:15.213Z,2.30
2023-06-29T12:21:43.221Z,2.30
2023-06-29T12:24:10.907Z,2.00
2023-06-29T12:26:38.485Z,2.47
2023-06-29T12:29:06.050Z,2.37
2023-06-29T12:31:33.713Z,2.57
2023-06-29T12:34:01.441Z,2.40
2023-06-29T12:36:30.387Z,2.83
2023-06-29T12:38:58.003Z,2.17
2023-06-29T12:41:25.608Z,2.43
2023-06-29T12:43:53.256Z,3.47
2023-06-29T12:46:23.815Z,2.13
2023-06-29T12:48:51.432Z,2.40
2023-06-29T12:51:19.073Z,3.03
2023-06-29T12:53:48.089Z,2.90
2023-06-29T12:56:15.811Z,2.70
2023-06-29T12:58:43.554Z,2.70
2023-06-29T13:01:11.267Z,2.63
2023-06-29T13:03:39.066Z,2.77
2023-06-29T13:06:06.850Z,2.97
2023-06-29T13:08:34.729Z,2.50
2023-06-29T13:11:05.646Z,3.07
2023-06-29T13:13:33.376Z,3.33
2023-06-29T13:16:01.072Z,3.00
2023-06-29T13:18:28.834Z,3.00
2023-06-29T13:20:56.582Z,2.60
2023-06-29T13:23:24.252Z,2.70
2023-06-29T13:25:51.901Z,2.77
2023-06-29T13:28:21.261Z,3.60
2023-06-29T13:30:49.021Z,2.60
2023-06-29T13:33:16.742Z,3.00
2023-06-29T13:35:44.667Z,3.30
2023-06-29T13:38:12.700Z,6.83
2023-06-29T13:40:40.366Z,2.70
2023-06-29T13:43:08.154Z,2.90
2023-06-29T13:45:37.147Z,2.80
2023-06-29T13:48:05.470Z,2.50
2023-06-29T13:50:41.568Z,2.70
2023-06-29T13:53:09.936Z,2.90
2023-06-29T13:55:37.773Z,3.00
2023-06-29T13:58:05.559Z,2.83
2023-06-29T14:00:35.359Z,3.10
2023-06-29T14:03:04.764Z,2.90
2023-06-29T14:05:32.459Z,3.13
2023-06-29T14:08:00.362Z,3.10
2023-06-29T14:10:28.641Z,3.20
2023-06-29T14:12:56.338Z,3.03
2023-06-29T14:15:24.175Z,3.20
2023-06-29T14:17:51.917Z,2.97
2023-06-29T14:20:21.007Z,3.70
2023-06-29T14:22:48.634Z,2.40
2023-06-29T14:25:16.288Z,3.23
2023-06-29T14:27:44.082Z,3.30
2023-06-29T14:30:13.153Z,3.27
2023-06-29T14:32:40.959Z,5.47
2023-06-29T14:35:09.266Z,5.10
2023-06-29T14:37:38.290Z,3.03
2023-06-29T14:40:08.537Z,3.00
2023-06-29T14:42:37.228Z,3.57
2023-06-29T14:45:05.784Z,3.83
2023-06-29T14:47:33.525Z,3.27
2023-06-29T14:50:01.335Z,3.13
2023-06-29T14:52:28.933Z,3.70
2023-06-29T14:54:57.883Z,2.70
2023-06-29T14:57:25.467Z,3.53
2023-06-29T14:59:53.337Z,3.50
2023-06-29T15:02:21.001Z,3.40
2023-06-29T15:04:48.677Z,3.07
2023-06-29T15:07:16.356Z,3.60
2023-06-29T15:09:44.072Z,3.83
2023-06-29T15:12:13.076Z,3.23
2023-06-29T15:14:40.801Z,3.60
2023-06-29T15:17:08.507Z,3.10
2023-06-29T15:19:36.221Z,3.27
2023-06-29T15:22:04.094Z,3.37
2023-06-29T15:24:31.709Z,3.73
2023-06-29T15:26:59.427Z,3.53
2023-06-29T15:29:28.475Z,3.70
2023-06-29T15:31:56.254Z,3.87
2023-06-29T15:34:24.310Z,16.37
2023-06-29T15:36:52.009Z,4.23
2023-06-29T15:39:19.642Z,4.93
2023-06-29T15:41:50.996Z,11.33
2023-06-29T15:44:19.066Z,3.83
2023-06-29T15:46:53.525Z,3.57
2023-06-29T15:49:21.551Z,3.77
2023-06-29T15:51:49.511Z,3.63
2023-06-29T15:54:18.174Z,6.53
2023-06-29T15:56:45.963Z,5.03
2023-06-29T15:59:13.586Z,3.80
2023-06-29T16:01:41.872Z,3.80
2023-06-29T16:04:10.908Z,3.50
2023-06-29T16:06:38.654Z,4.60
2023-06-29T16:09:06.324Z,3.50
2023-06-29T16:11:33.996Z,4.07
2023-06-29T16:14:01.659Z,4.87
2023-06-29T16:16:29.701Z,4.17
2023-06-29T16:18:57.945Z,3.77
2023-06-29T16:21:27.424Z,3.47
2023-06-29T16:23:55.172Z,4.23
2023-06-29T16:26:22.805Z,3.93
2023-06-29T16:28:50.567Z,4.07
2023-06-29T16:31:18.335Z,3.77
2023-06-29T16:33:46.082Z,4.17
2023-06-29T16:36:13.769Z,4.10
2023-06-29T16:38:42.822Z,3.90
2023-06-29T16:41:12.249Z,4.20
2023-06-29T16:43:40.220Z,4.00
2023-06-29T16:46:07.892Z,4.30
2023-06-29T16:48:35.642Z,4.10
2023-06-29T16:51:03.406Z,4.37
2023-06-29T16:53:31.076Z,4.80
2023-06-29T16:56:00.050Z,3.90
2023-06-29T16:58:28.633Z,4.63
2023-06-29T17:00:56.357Z,4.60
2023-06-29T17:03:24.086Z,3.80
2023-06-29T17:05:51.826Z,4.00
2023-06-29T17:08:19.504Z,4.40
2023-06-29T17:10:47.255Z,4.70
2023-06-29T17:13:16.218Z,4.40
2023-06-29T17:15:44.445Z,4.43
2023-06-29T17:18:12.479Z,4.40
2023-06-29T17:20:40.129Z,4.73
2023-06-29T17:23:08.289Z,5.00
2023-06-29T17:25:35.877Z,4.83
2023-06-29T17:28:03.645Z,4.63
2023-06-29T17:30:32.625Z,4.50
2023-06-29T17:33:00.316Z,4.40
2023-06-29T17:35:27.965Z,4.13
2023-06-29T17:37:55.624Z,4.20
2023-06-29T17:40:23.362Z,4.73
2023-06-29T17:42:50.953Z,4.77
2023-06-29T17:45:18.960Z,4.80
2023-06-29T17:47:47.982Z,4.73
2023-06-29T17:50:15.728Z,5.03
2023-06-29T17:52:45.157Z,5.40
2023-06-29T17:55:13.124Z,5.13
2023-06-29T17:57:40.915Z,4.37
2023-06-29T18:00:09.768Z,4.50
2023-06-29T18:02:38.121Z,5.10
2023-06-29T18:05:07.565Z,5.10
2023-06-29T18:07:35.539Z,4.80
2023-06-29T18:10:06.068Z,4.50
2023-06-29T18:12:33.687Z,4.27
2023-06-29T18:15:01.408Z,4.50
2023-06-29T18:17:29.115Z,4.50
2023-06-29T18:19:56.828Z,5.10
2023-06-29T18:22:26.146Z,4.50
2023-06-29T18:24:53.989Z,4.37
2023-06-29T18:27:23.242Z,4.50
2023-06-29T18:29:50.989Z,4.90
2023-06-29T18:32:19.578Z,5.17
2023-06-29T18:34:47.902Z,5.00
2023-06-29T18:37:16.792Z,4.97
2023-06-29T18:39:45.895Z,4.33
2023-06-29T18:42:13.525Z,4.50
2023-06-29T18:44:43.018Z,4.50
2023-06-29T18:47:13.241Z,5.43
2023-06-29T18:49:51.664Z,4.10
2023-06-29T18:52:21.258Z,5.00
2023-06-29T18:54:51.962Z,4.83
2023-06-29T18:57:19.555Z,4.83
2023-06-29T18:59:48.502Z,5.00
2023-06-29T19:02:16.712Z,4.77
2023-06-29T19:04:44.386Z,5.97
2023-06-29T19:07:15.940Z,5.53
2023-06-29T19:09:43.969Z,5.27
2023-06-29T19:12:14.145Z,5.00
2023-06-29T19:14:41.751Z,4.83
2023-06-29T19:17:10.547Z,5.60
2023-06-29T19:19:39.011Z,5.23
2023-06-29T19:22:08.322Z,5.37
2023-06-29T19:24:35.921Z,4.53
2023-06-29T19:27:06.503Z,4.97
2023-06-29T19:29:35.475Z,5.13
2023-06-29T19:32:03.126Z,5.60
2023-06-29T19:34:32.410Z,4.40
2023-06-29T19:37:02.289Z,4.53
2023-06-29T19:39:29.975Z,4.53
2023-06-29T19:41:57.769Z,4.73
2023-06-29T19:44:25.407Z,5.60
2023-06-29T19:46:54.442Z,4.53
2023-06-29T19:49:22.140Z,4.83
2023-06-29T19:51:50.000Z,5.20
2023-06-29T19:54:17.571Z,5.30
2023-06-29T19:56:45.174Z,6.07
2023-06-29T19:59:12.848Z,5.67
2023-06-29T20:01:40.474Z,4.73
2023-06-29T20:04:09.499Z,5.20
2023-06-29T20:06:37.537Z,5.30
2023-06-29T20:09:05.675Z,5.13
2023-06-29T20:11:33.328Z,5.90
2023-06-29T20:14:01.004Z,5.80
2023-06-29T20:16:28.835Z,5.60
2023-06-29T20:18:56.748Z,5.87
2023-06-29T20:21:25.803Z,5.30
2023-06-29T20:23:53.739Z,5.10
2023-06-29T20:26:21.567Z,5.40
2023-06-29T20:28:49.253Z,6.00
2023-06-29T20:31:16.940Z,6.07
2023-06-29T20:33:44.621Z,5.57
2023-06-29T20:36:14.795Z,6.50
2023-06-29T20:38:43.907Z,6.60
2023-06-29T20:41:11.672Z,5.80
2023-06-29T20:43:39.332Z,5.40
2023-06-29T20:46:07.554Z,5.37
2023-06-29T20:48:35.285Z,5.10
2023-06-29T20:51:16.251Z,5.80
2023-06-29T20:53:46.636Z,5.60
2023-06-29T20:56:14.209Z,5.77
2023-06-29T20:58:42.086Z,5.80
2023-06-29T21:01:09.830Z,5.63
2023-06-29T21:03:39.109Z,6.13
2023-06-29T21:06:06.814Z,6.10
2023-06-29T21:08:34.416Z,5.90
2023-06-29T21:11:03.710Z,5.97
2023-06-29T21:13:31.736Z,5.27
2023-06-29T21:15:59.616Z,6.00
2023-06-29T21:18:28.015Z,5.93
2023-06-29T21:20:56.119Z,6.00
2023-06-29T21:23:24.050Z,6.03
2023-06-29T21:25:52.230Z,5.50
2023-06-29T21:28:21.410Z,5.90
2023-06-29T21:30:49.523Z,5.77
2023-06-29T21:33:17.720Z,5.63
2023-06-29T21:35:46.016Z,5.60
2023-06-29T21:38:14.169Z,5.83
2023-06-29T21:40:41.749Z,5.80
2023-06-29T21:43:09.453Z,6.00
2023-06-29T21:45:38.589Z,6.03
2023-06-29T21:48:07.765Z,5.90
2023-06-29T21:50:35.579Z,6.77
2023-06-29T21:53:03.260Z,6.50
2023-06-29T21:55:30.972Z,5.80
2023-06-29T21:57:58.575Z,6.60
2023-06-29T22:00:26.725Z,6.10
2023-06-29T22:02:56.891Z,5.63
2023-06-29T22:05:24.706Z,6.10
2023-06-29T22:07:52.443Z,5.93
2023-06-29T22:10:20.204Z,5.97
2023-06-29T22:12:49.144Z,6.10
2023-06-29T22:15:16.781Z,5.03
2023-06-29T22:17:44.779Z,6.83
2023-06-29T22:20:16.839Z,6.57
2023-06-29T22:22:45.418Z,5.30
2023-06-29T22:25:13.054Z,5.30
2023-06-29T22:27:40.683Z,5.80
2023-06-29T22:30:09.369Z,6.00
2023-06-29T22:32:37.346Z,5.70
2023-06-29T22:35:05.860Z,5.20
2023-06-29T22:37:34.934Z,5.47
2023-06-29T22:40:06.053Z,5.97
2023-06-29T22:42:33.725Z,5.77
2023-06-29T22:45:01.355Z,5.80
2023-06-29T22:47:29.156Z,6.07
2023-06-29T22:49:56.812Z,5.50
2023-06-29T22:52:24.443Z,6.70
2023-06-29T22:54:53.991Z,5.93
2023-06-29T22:57:22.964Z,6.60
2023-06-29T22:59:51.240Z,6.20
2023-06-29T23:02:19.392Z,6.43
2023-06-29T23:04:47.107Z,6.33
2023-06-29T23:07:15.241Z,6.50
2023-06-29T23:09:42.925Z,6.80
2023-06-29T23:12:12.348Z,6.83
2023-06-29T23:14:40.021Z,6.63
2023-06-29T23:17:07.750Z,7.03
2023-06-29T23:19:36.966Z,6.53
2023-06-29T23:22:06.477Z,6.13
2023-06-29T23:24:36.108Z,7.00
2023-06-29T23:27:03.742Z,5.80
2023-06-29T23:29:32.652Z,6.50
2023-06-29T23:32:00.286Z,6.00
2023-06-29T23:34:27.879Z,6.67
2023-06-29T23:36:55.473Z,5.80
2023-06-29T23:39:23.122Z,6.70
2023-06-29T23:41:50.824Z,6.60
2023-06-29T23:44:18.413Z,6.70
2023-06-29T23:46:50.464Z,7.00
2023-06-29T23:49:19.462Z,6.50
2023-06-29T23:51:48.352Z,6.23
2023-06-29T23:54:16.492Z,6.87
2023-06-29T23:56:46.849Z,6.30
2023-06-29T23:59:14.477Z,6.27
